sensor_id;sensor_type;location;lat;lon;timestamp;P1;durP1;ratioP1;P2;durP2;ratioP2
22164;SDS011;11248;52.512;13.520;2023-06-14T00:00:11;2.53;;;1.65;;
22164;SDS011;11248;52.512;13.520;2023-06-14T00:02:40;4.15;;;1.67;;
22164;SDS011;11248;52.512;13.520;2023-06-14T00:05:06;2.30;;;1.70;;
22164;SDS011;11248;52.512;13.520;2023-06-14T00:07:33;2.50;;;1.88;;
22164;SDS011;11248;52.512;13.520;2023-06-14T00:09:59;2.63;;;1.90;;
22164;SDS011;11248;52.512;13.520;2023-06-14T00:12:25;3.13;;;2.15;;
22164;SDS011;11248;52.512;13.520;2023-06-14T00:14:51;5.00;;;2.08;;
22164;SDS011;11248;52.512;13.520;2023-06-14T00:17:17;2.88;;;2.38;;
22164;SDS011;11248;52.512;13.520;2023-06-14T00:19:43;2.20;;;1.88;;
22164;SDS011;11248;52.512;13.520;2023-06-14T00:22:09;1.95;;;1.75;;
22164;SDS011;11248;52.512;13.520;2023-06-14T00:24:35;2.58;;;1.90;;
22164;SDS011;11248;52.512;13.520;2023-06-14T00:27:01;2.30;;;1.92;;
22164;SDS011;11248;52.512;13.520;2023-06-14T00:29:27;2.25;;;2.00;;
22164;SDS011;11248;52.512;13.520;2023-06-14T00:31:53;2.83;;;1.70;;
22164;SDS011;11248;52.512;13.520;2023-06-14T00:34:19;3.92;;;1.95;;
22164;SDS011;11248;52.512;13.520;2023-06-14T00:36:45;2.15;;;1.90;;
22164;SDS011;11248;52.512;13.520;2023-06-14T00:39:11;2.58;;;1.90;;
22164;SDS011;11248;52.512;13.520;2023-06-14T00:41:37;2.67;;;2.10;;
22164;SDS011;11248;52.512;13.520;2023-06-14T00:44:03;2.83;;;2.15;;
22164;SDS011;11248;52.512;13.520;2023-06-14T00:46:28;2.97;;;2.00;;
22164;SDS011;11248;52.512;13.520;2023-06-14T00:48:55;2.70;;;2.00;;
22164;SDS011;11248;52.512;13.520;2023-06-14T00:51:21;3.58;;;2.10;;
22164;SDS011;11248;52.512;13.520;2023-06-14T00:53:47;2.90;;;2.20;;
22164;SDS011;11248;52.512;13.520;2023-06-14T00:56:13;2.75;;;2.10;;
22164;SDS011;11248;52.512;13.520;2023-06-14T00:58:40;4.95;;;2.30;;
22164;SDS011;11248;52.512;13.520;2023-06-14T01:01:06;4.15;;;1.88;;
22164;SDS011;11248;52.512;13.520;2023-06-14T01:03:32;3.28;;;2.30;;
22164;SDS011;11248;52.512;13.520;2023-06-14T01:06:11;4.20;;;2.42;;
22164;SDS011;11248;52.512;13.520;2023-06-14T01:08:47;3.42;;;2.20;;
22164;SDS011;11248;52.512;13.520;2023-06-14T01:11:18;2.53;;;1.88;;
22164;SDS011;11248;52.512;13.520;2023-06-14T01:13:46;3.97;;;2.20;;
22164;SDS011;11248;52.512;13.520;2023-06-14T01:16:12;7.32;;;2.42;;
22164;SDS011;11248;52.512;13.520;2023-06-14T01:18:38;4.80;;;2.10;;
22164;SDS011;11248;52.512;13.520;2023-06-14T01:21:06;2.53;;;2.28;;
22164;SDS011;11248;52.512;13.520;2023-06-14T01:26:49;3.10;;;2.30;;
22164;SDS011;11248;52.512;13.520;2023-06-14T01:29:20;3.25;;;2.60;;
22164;SDS011;11248;52.512;13.520;2023-06-14T01:31:46;3.33;;;2.38;;
22164;SDS011;11248;52.512;13.520;2023-06-14T01:34:12;3.28;;;2.30;;
22164;SDS011;11248;52.512;13.520;2023-06-14T01:36:39;2.80;;;2.50;;
22164;SDS011;11248;52.512;13.520;2023-06-14T01:39:06;2.53;;;2.30;;
22164;SDS011;11248;52.512;13.520;2023-06-14T01:41:32;3.17;;;2.38;;
22164;SDS011;11248;52.512;13.520;2023-06-14T01:43:59;3.28;;;2.70;;
22164;SDS011;11248;52.512;13.520;2023-06-14T01:46:25;3.63;;;2.60;;
22164;SDS011;11248;52.512;13.520;2023-06-14T01:48:51;2.78;;;2.47;;
22164;SDS011;11248;52.512;13.520;2023-06-14T01:51:17;2.85;;;2.25;;
22164;SDS011;11248;52.512;13.520;2023-06-14T01:53:43;4.03;;;2.83;;
22164;SDS011;11248;52.512;13.520;2023-06-14T01:56:09;3.20;;;2.40;;
22164;SDS011;11248;52.512;13.520;2023-06-14T01:58:35;3.22;;;2.53;;
22164;SDS011;11248;52.512;13.520;2023-06-14T02:01:01;3.25;;;2.63;;
22164;SDS011;11248;52.512;13.520;2023-06-14T02:03:27;4.60;;;3.00;;
22164;SDS011;11248;52.512;13.520;2023-06-14T02:05:53;3.75;;;2.58;;
22164;SDS011;11248;52.512;13.520;2023-06-14T02:08:20;4.78;;;2.60;;
22164;SDS011;11248;52.512;13.520;2023-06-14T02:10:46;4.47;;;2.78;;
22164;SDS011;11248;52.512;13.520;2023-06-14T02:13:12;3.72;;;2.70;;
22164;SDS011;11248;52.512;13.520;2023-06-14T02:15:38;3.13;;;2.75;;
22164;SDS011;11248;52.512;13.520;2023-06-14T02:18:04;3.75;;;2.65;;
22164;SDS011;11248;52.512;13.520;2023-06-14T02:20:30;3.70;;;2.97;;
22164;SDS011;11248;52.512;13.520;2023-06-14T02:22:56;3.53;;;2.70;;
22164;SDS011;11248;52.512;13.520;2023-06-14T02:25:22;4.95;;;2.60;;
22164;SDS011;11248;52.512;13.520;2023-06-14T02:27:48;4.95;;;2.60;;
22164;SDS011;11248;52.512;13.520;2023-06-14T02:30:14;5.43;;;2.67;;
22164;SDS011;11248;52.512;13.520;2023-06-14T02:32:40;3.40;;;2.90;;
22164;SDS011;11248;52.512;13.520;2023-06-14T02:35:07;3.45;;;2.80;;
22164;SDS011;11248;52.512;13.520;2023-06-14T02:37:33;3.92;;;3.03;;
22164;SDS011;11248;52.512;13.520;2023-06-14T02:40:00;4.30;;;3.35;;
22164;SDS011;11248;52.512;13.520;2023-06-14T02:42:25;4.55;;;2.95;;
22164;SDS011;11248;52.512;13.520;2023-06-14T02:44:51;5.35;;;3.10;;
22164;SDS011;11248;52.512;13.520;2023-06-14T02:47:18;4.25;;;3.15;;
22164;SDS011;11248;52.512;13.520;2023-06-14T02:49:44;4.70;;;3.35;;
22164;SDS011;11248;52.512;13.520;2023-06-14T02:52:13;5.53;;;3.45;;
22164;SDS011;11248;52.512;13.520;2023-06-14T02:54:39;4.90;;;3.50;;
22164;SDS011;11248;52.512;13.520;2023-06-14T02:57:05;4.90;;;3.17;;
22164;SDS011;11248;52.512;13.520;2023-06-14T02:59:32;4.22;;;2.80;;
22164;SDS011;11248;52.512;13.520;2023-06-14T03:01:58;4.25;;;3.03;;
22164;SDS011;11248;52.512;13.520;2023-06-14T03:04:24;5.00;;;3.47;;
22164;SDS011;11248;52.512;13.520;2023-06-14T03:06:51;3.67;;;3.30;;
22164;SDS011;11248;52.512;13.520;2023-06-14T03:09:18;3.88;;;3.45;;
22164;SDS011;11248;52.512;13.520;2023-06-14T03:11:44;5.20;;;3.50;;
22164;SDS011;11248;52.512;13.520;2023-06-14T03:14:10;4.72;;;2.97;;
22164;SDS011;11248;52.512;13.520;2023-06-14T03:16:36;4.13;;;3.45;;
22164;SDS011;11248;52.512;13.520;2023-06-14T03:19:02;4.50;;;3.60;;
22164;SDS011;11248;52.512;13.520;2023-06-14T03:21:28;5.63;;;3.30;;
22164;SDS011;11248;52.512;13.520;2023-06-14T03:23:55;4.32;;;3.15;;
22164;SDS011;11248;52.512;13.520;2023-06-14T03:26:21;4.18;;;3.42;;
22164;SDS011;11248;52.512;13.520;2023-06-14T03:28:47;4.35;;;3.33;;
22164;SDS011;11248;52.512;13.520;2023-06-14T03:31:14;4.10;;;2.97;;
22164;SDS011;11248;52.512;13.520;2023-06-14T03:33:41;4.90;;;3.78;;
22164;SDS011;11248;52.512;13.520;2023-06-14T03:36:07;4.20;;;3.20;;
22164;SDS011;11248;52.512;13.520;2023-06-14T03:38:33;4.93;;;3.83;;
22164;SDS011;11248;52.512;13.520;2023-06-14T03:41:00;7.60;;;3.17;;
22164;SDS011;11248;52.512;13.520;2023-06-14T03:43:26;6.40;;;3.65;;
22164;SDS011;11248;52.512;13.520;2023-06-14T03:45:52;5.07;;;3.63;;
22164;SDS011;11248;52.512;13.520;2023-06-14T03:48:18;5.35;;;3.92;;
22164;SDS011;11248;52.512;13.520;2023-06-14T03:50:44;4.32;;;3.38;;
22164;SDS011;11248;52.512;13.520;2023-06-14T03:53:10;4.75;;;3.47;;
22164;SDS011;11248;52.512;13.520;2023-06-14T03:55:36;5.47;;;3.45;;
22164;SDS011;11248;52.512;13.520;2023-06-14T03:58:03;5.85;;;3.60;;
22164;SDS011;11248;52.512;13.520;2023-06-14T04:00:29;4.15;;;3.40;;
22164;SDS011;11248;52.512;13.520;2023-06-14T04:02:55;5.50;;;3.33;;
22164;SDS011;11248;52.512;13.520;2023-06-14T04:05:21;5.97;;;3.78;;
22164;SDS011;11248;52.512;13.520;2023-06-14T04:07:48;6.75;;;3.88;;
22164;SDS011;11248;52.512;13.520;2023-06-14T04:10:15;7.55;;;3.90;;
22164;SDS011;11248;52.512;13.520;2023-06-14T04:12:42;4.97;;;3.83;;
22164;SDS011;11248;52.512;13.520;2023-06-14T04:15:08;4.78;;;3.78;;
22164;SDS011;11248;52.512;13.520;2023-06-14T04:17:35;6.13;;;3.78;;
22164;SDS011;11248;52.512;13.520;2023-06-14T04:20:01;9.15;;;4.00;;
22164;SDS011;11248;52.512;13.520;2023-06-14T04:22:28;4.40;;;3.60;;
22164;SDS011;11248;52.512;13.520;2023-06-14T04:24:55;6.28;;;3.42;;
22164;SDS011;11248;52.512;13.520;2023-06-14T04:27:24;4.75;;;3.60;;
22164;SDS011;11248;52.512;13.520;2023-06-14T04:29:53;6.15;;;3.85;;
22164;SDS011;11248;52.512;13.520;2023-06-14T04:32:28;4.65;;;3.42;;
22164;SDS011;11248;52.512;13.520;2023-06-14T04:34:58;4.65;;;3.38;;
22164;SDS011;11248;52.512;13.520;2023-06-14T04:37:26;6.60;;;3.75;;
22164;SDS011;11248;52.512;13.520;2023-06-14T04:39:54;4.03;;;3.40;;
22164;SDS011;11248;52.512;13.520;2023-06-14T04:42:21;4.80;;;3.58;;
22164;SDS011;11248;52.512;13.520;2023-06-14T04:44:49;5.38;;;3.40;;
22164;SDS011;11248;52.512;13.520;2023-06-14T04:47:15;5.50;;;3.25;;
22164;SDS011;11248;52.512;13.520;2023-06-14T04:49:41;5.57;;;3.78;;
22164;SDS011;11248;52.512;13.520;2023-06-14T04:52:07;4.50;;;3.45;;
22164;SDS011;11248;52.512;13.520;2023-06-14T04:54:35;4.57;;;3.42;;
22164;SDS011;11248;52.512;13.520;2023-06-14T04:57:02;4.95;;;3.92;;
22164;SDS011;11248;52.512;13.520;2023-06-14T04:59:28;7.90;;;3.58;;
22164;SDS011;11248;52.512;13.520;2023-06-14T05:01:58;4.45;;;3.47;;
22164;SDS011;11248;52.512;13.520;2023-06-14T05:04:24;5.97;;;3.70;;
22164;SDS011;11248;52.512;13.520;2023-06-14T05:06:51;5.50;;;3.60;;
22164;SDS011;11248;52.512;13.520;2023-06-14T05:09:19;4.82;;;3.42;;
22164;SDS011;11248;52.512;13.520;2023-06-14T05:11:46;5.75;;;3.80;;
22164;SDS011;11248;52.512;13.520;2023-06-14T05:14:12;5.07;;;3.85;;
22164;SDS011;11248;52.512;13.520;2023-06-14T05:16:39;7.50;;;3.50;;
22164;SDS011;11248;52.512;13.520;2023-06-14T05:19:05;4.47;;;3.28;;
22164;SDS011;11248;52.512;13.520;2023-06-14T05:21:31;4.88;;;3.55;;
22164;SDS011;11248;52.512;13.520;2023-06-14T05:23:59;4.45;;;3.28;;
22164;SDS011;11248;52.512;13.520;2023-06-14T05:26:25;5.72;;;3.72;;
22164;SDS011;11248;52.512;13.520;2023-06-14T05:28:58;4.80;;;3.75;;
22164;SDS011;11248;52.512;13.520;2023-06-14T05:31:26;4.18;;;3.50;;
22164;SDS011;11248;52.512;13.520;2023-06-14T05:33:53;4.63;;;3.28;;
22164;SDS011;11248;52.512;13.520;2023-06-14T05:36:22;7.68;;;3.60;;
22164;SDS011;11248;52.512;13.520;2023-06-14T05:38:48;5.63;;;3.25;;
22164;SDS011;11248;52.512;13.520;2023-06-14T05:41:14;5.68;;;3.53;;
22164;SDS011;11248;52.512;13.520;2023-06-14T05:43:39;4.30;;;3.45;;
22164;SDS011;11248;52.512;13.520;2023-06-14T05:46:05;4.75;;;3.63;;
22164;SDS011;11248;52.512;13.520;2023-06-14T05:48:31;6.50;;;3.50;;
22164;SDS011;11248;52.512;13.520;2023-06-14T05:50:58;4.85;;;3.50;;
22164;SDS011;11248;52.512;13.520;2023-06-14T05:53:24;8.00;;;3.85;;
22164;SDS011;11248;52.512;13.520;2023-06-14T05:55:50;6.32;;;4.05;;
22164;SDS011;11248;52.512;13.520;2023-06-14T05:58:20;4.97;;;4.05;;
22164;SDS011;11248;52.512;13.520;2023-06-14T06:00:46;4.65;;;3.70;;
22164;SDS011;11248;52.512;13.520;2023-06-14T06:03:12;6.47;;;3.65;;
22164;SDS011;11248;52.512;13.520;2023-06-14T06:05:38;5.80;;;4.10;;
22164;SDS011;11248;52.512;13.520;2023-06-14T06:08:04;6.60;;;3.42;;
22164;SDS011;11248;52.512;13.520;2023-06-14T06:10:30;5.22;;;3.97;;
22164;SDS011;11248;52.512;13.520;2023-06-14T06:12:56;7.05;;;4.32;;
22164;SDS011;11248;52.512;13.520;2023-06-14T06:15:21;6.72;;;3.70;;
22164;SDS011;11248;52.512;13.520;2023-06-14T06:17:47;6.70;;;4.25;;
22164;SDS011;11248;52.512;13.520;2023-06-14T06:20:13;6.57;;;4.30;;
22164;SDS011;11248;52.512;13.520;2023-06-14T06:22:39;5.25;;;4.15;;
22164;SDS011;11248;52.512;13.520;2023-06-14T06:25:05;4.90;;;3.67;;
22164;SDS011;11248;52.512;13.520;2023-06-14T06:27:32;4.57;;;3.40;;
22164;SDS011;11248;52.512;13.520;2023-06-14T06:29:58;4.93;;;3.70;;
22164;SDS011;11248;52.512;13.520;2023-06-14T06:32:24;5.40;;;3.40;;
22164;SDS011;11248;52.512;13.520;2023-06-14T06:34:50;7.18;;;4.22;;
22164;SDS011;11248;52.512;13.520;2023-06-14T06:37:16;6.15;;;3.45;;
22164;SDS011;11248;52.512;13.520;2023-06-14T06:39:42;9.57;;;3.30;;
22164;SDS011;11248;52.512;13.520;2023-06-14T06:42:08;6.28;;;3.75;;
22164;SDS011;11248;52.512;13.520;2023-06-14T06:44:35;6.97;;;3.90;;
22164;SDS011;11248;52.512;13.520;2023-06-14T06:47:01;5.72;;;4.05;;
22164;SDS011;11248;52.512;13.520;2023-06-14T06:49:27;6.43;;;3.42;;
22164;SDS011;11248;52.512;13.520;2023-06-14T06:52:00;4.57;;;3.63;;
22164;SDS011;11248;52.512;13.520;2023-06-14T06:54:27;9.13;;;3.58;;
22164;SDS011;11248;52.512;13.520;2023-06-14T06:56:53;10.52;;;3.55;;
22164;SDS011;11248;52.512;13.520;2023-06-14T06:59:19;6.45;;;3.60;;
22164;SDS011;11248;52.512;13.520;2023-06-14T07:01:44;11.43;;;4.53;;
22164;SDS011;11248;52.512;13.520;2023-06-14T07:04:10;5.43;;;3.88;;
22164;SDS011;11248;52.512;13.520;2023-06-14T07:06:36;4.38;;;3.35;;
22164;SDS011;11248;52.512;13.520;2023-06-14T07:09:02;9.52;;;3.90;;
22164;SDS011;11248;52.512;13.520;2023-06-14T07:11:33;5.28;;;3.22;;
22164;SDS011;11248;52.512;13.520;2023-06-14T07:13:59;6.07;;;3.70;;
22164;SDS011;11248;52.512;13.520;2023-06-14T07:16:25;19.75;;;5.35;;
22164;SDS011;11248;52.512;13.520;2023-06-14T07:18:51;6.32;;;3.72;;
22164;SDS011;11248;52.512;13.520;2023-06-14T07:21:17;6.35;;;3.63;;
22164;SDS011;11248;52.512;13.520;2023-06-14T07:23:43;6.60;;;3.40;;
22164;SDS011;11248;52.512;13.520;2023-06-14T07:26:09;6.75;;;3.63;;
22164;SDS011;11248;52.512;13.520;2023-06-14T07:28:35;7.03;;;3.20;;
22164;SDS011;11248;52.512;13.520;2023-06-14T07:31:01;5.57;;;3.00;;
22164;SDS011;11248;52.512;13.520;2023-06-14T07:33:27;5.32;;;3.17;;
22164;SDS011;11248;52.512;13.520;2023-06-14T07:35:53;5.85;;;3.40;;
22164;SDS011;11248;52.512;13.520;2023-06-14T07:38:19;4.88;;;3.45;;
22164;SDS011;11248;52.512;13.520;2023-06-14T07:40:45;7.78;;;3.65;;
22164;SDS011;11248;52.512;13.520;2023-06-14T07:43:11;7.88;;;3.60;;
22164;SDS011;11248;52.512;13.520;2023-06-14T07:45:37;4.78;;;3.33;;
22164;SDS011;11248;52.512;13.520;2023-06-14T07:48:03;5.43;;;3.08;;
22164;SDS011;11248;52.512;13.520;2023-06-14T07:50:29;5.30;;;3.47;;
22164;SDS011;11248;52.512;13.520;2023-06-14T07:52:55;4.53;;;3.30;;
22164;SDS011;11248;52.512;13.520;2023-06-14T07:55:21;6.47;;;2.95;;
22164;SDS011;11248;52.512;13.520;2023-06-14T07:57:47;4.38;;;3.17;;
22164;SDS011;11248;52.512;13.520;2023-06-14T08:00:13;5.18;;;3.17;;
22164;SDS011;11248;52.512;13.520;2023-06-14T08:02:44;4.10;;;2.95;;
22164;SDS011;11248;52.512;13.520;2023-06-14T08:05:10;4.47;;;3.17;;
22164;SDS011;11248;52.512;13.520;2023-06-14T08:07:37;4.70;;;2.90;;
22164;SDS011;11248;52.512;13.520;2023-06-14T08:10:06;4.68;;;3.08;;
22164;SDS011;11248;52.512;13.520;2023-06-14T08:12:32;4.97;;;2.78;;
22164;SDS011;11248;52.512;13.520;2023-06-14T08:14:59;4.50;;;2.90;;
22164;SDS011;11248;52.512;13.520;2023-06-14T08:17:25;6.88;;;3.03;;
22164;SDS011;11248;52.512;13.520;2023-06-14T08:19:51;3.97;;;3.30;;
22164;SDS011;11248;52.512;13.520;2023-06-14T08:22:19;4.88;;;2.83;;
22164;SDS011;11248;52.512;13.520;2023-06-14T08:24:46;2.70;;;2.20;;
22164;SDS011;11248;52.512;13.520;2023-06-14T08:27:12;5.65;;;2.85;;
22164;SDS011;11248;52.512;13.520;2023-06-14T08:29:38;7.78;;;3.20;;
22164;SDS011;11248;52.512;13.520;2023-06-14T08:32:06;3.78;;;2.70;;
22164;SDS011;11248;52.512;13.520;2023-06-14T08:34:32;3.97;;;2.88;;
22164;SDS011;11248;52.512;13.520;2023-06-14T08:36:58;5.72;;;2.80;;
22164;SDS011;11248;52.512;13.520;2023-06-14T08:39:24;5.32;;;2.92;;
22164;SDS011;11248;52.512;13.520;2023-06-14T08:41:50;6.00;;;2.75;;
22164;SDS011;11248;52.512;13.520;2023-06-14T08:44:18;5.63;;;3.08;;
22164;SDS011;11248;52.512;13.520;2023-06-14T08:46:43;9.40;;;3.20;;
22164;SDS011;11248;52.512;13.520;2023-06-14T08:49:11;3.22;;;2.80;;
22164;SDS011;11248;52.512;13.520;2023-06-14T08:51:37;4.75;;;2.75;;
22164;SDS011;11248;52.512;13.520;2023-06-14T08:54:05;3.25;;;2.72;;
22164;SDS011;11248;52.512;13.520;2023-06-14T08:56:32;6.65;;;2.47;;
22164;SDS011;11248;52.512;13.520;2023-06-14T08:58:59;5.40;;;2.55;;
22164;SDS011;11248;52.512;13.520;2023-06-14T09:01:29;4.85;;;2.50;;
22164;SDS011;11248;52.512;13.520;2023-06-14T09:03:56;3.80;;;2.90;;
22164;SDS011;11248;52.512;13.520;2023-06-14T09:06:22;7.53;;;3.45;;
22164;SDS011;11248;52.512;13.520;2023-06-14T09:08:49;5.53;;;2.42;;
22164;SDS011;11248;52.512;13.520;2023-06-14T09:11:17;5.25;;;2.88;;
22164;SDS011;11248;52.512;13.520;2023-06-14T09:13:44;8.82;;;2.75;;
22164;SDS011;11248;52.512;13.520;2023-06-14T09:16:10;4.88;;;2.35;;
22164;SDS011;11248;52.512;13.520;2023-06-14T09:18:37;5.57;;;2.90;;
22164;SDS011;11248;52.512;13.520;2023-06-14T09:21:03;3.90;;;2.85;;
22164;SDS011;11248;52.512;13.520;2023-06-14T09:23:33;4.43;;;2.63;;
22164;SDS011;11248;52.512;13.520;2023-06-14T09:25:59;3.25;;;2.35;;
22164;SDS011;11248;52.512;13.520;2023-06-14T09:28:28;3.38;;;2.40;;
22164;SDS011;11248;52.512;13.520;2023-06-14T09:30:54;3.67;;;2.40;;
22164;SDS011;11248;52.512;13.520;2023-06-14T09:33:20;4.22;;;2.33;;
22164;SDS011;11248;52.512;13.520;2023-06-14T09:35:50;5.18;;;3.08;;
22164;SDS011;11248;52.512;13.520;2023-06-14T09:38:16;3.03;;;2.72;;
22164;SDS011;11248;52.512;13.520;2023-06-14T09:40:42;6.90;;;2.78;;
22164;SDS011;11248;52.512;13.520;2023-06-14T09:43:08;4.20;;;2.63;;
22164;SDS011;11248;52.512;13.520;2023-06-14T09:45:34;4.75;;;2.78;;
22164;SDS011;11248;52.512;13.520;2023-06-14T09:48:00;3.60;;;2.40;;
22164;SDS011;11248;52.512;13.520;2023-06-14T09:50:26;3.47;;;2.40;;
22164;SDS011;11248;52.512;13.520;2023-06-14T09:52:52;4.50;;;2.42;;
22164;SDS011;11248;52.512;13.520;2023-06-14T09:55:22;2.47;;;2.15;;
22164;SDS011;11248;52.512;13.520;2023-06-14T09:57:49;2.97;;;2.40;;
22164;SDS011;11248;52.512;13.520;2023-06-14T10:00:16;3.17;;;2.40;;
22164;SDS011;11248;52.512;13.520;2023-06-14T10:02:43;4.28;;;2.75;;
22164;SDS011;11248;52.512;13.520;2023-06-14T10:05:15;2.78;;;2.58;;
22164;SDS011;11248;52.512;13.520;2023-06-14T10:07:53;3.10;;;2.38;;
22164;SDS011;11248;52.512;13.520;2023-06-14T10:10:19;3.50;;;2.60;;
22164;SDS011;11248;52.512;13.520;2023-06-14T10:12:45;4.88;;;2.40;;
22164;SDS011;11248;52.512;13.520;2023-06-14T10:15:17;2.20;;;2.00;;
22164;SDS011;11248;52.512;13.520;2023-06-14T10:17:56;4.20;;;2.47;;
22164;SDS011;11248;52.512;13.520;2023-06-14T10:20:27;4.18;;;2.38;;
22164;SDS011;11248;52.512;13.520;2023-06-14T10:22:56;8.13;;;2.60;;
22164;SDS011;11248;52.512;13.520;2023-06-14T10:25:30;7.10;;;3.13;;
22164;SDS011;11248;52.512;13.520;2023-06-14T10:30:38;4.82;;;2.67;;
22164;SDS011;11248;52.512;13.520;2023-06-14T10:33:04;4.78;;;2.40;;
22164;SDS011;11248;52.512;13.520;2023-06-14T10:35:31;3.38;;;2.50;;
22164;SDS011;11248;52.512;13.520;2023-06-14T10:38:07;6.75;;;2.90;;
22164;SDS011;11248;52.512;13.520;2023-06-14T10:40:33;4.63;;;2.47;;
22164;SDS011;11248;52.512;13.520;2023-06-14T10:43:00;5.47;;;2.65;;
22164;SDS011;11248;52.512;13.520;2023-06-14T10:45:25;3.35;;;2.60;;
22164;SDS011;11248;52.512;13.520;2023-06-14T10:47:51;4.90;;;2.90;;
22164;SDS011;11248;52.512;13.520;2023-06-14T10:50:22;6.00;;;2.85;;
22164;SDS011;11248;52.512;13.520;2023-06-14T10:52:53;4.03;;;2.67;;
22164;SDS011;11248;52.512;13.520;2023-06-14T10:55:19;5.30;;;2.88;;
22164;SDS011;11248;52.512;13.520;2023-06-14T10:57:51;5.40;;;2.88;;
22164;SDS011;11248;52.512;13.520;2023-06-14T11:00:24;3.58;;;2.20;;
22164;SDS011;11248;52.512;13.520;2023-06-14T11:05:48;4.95;;;2.50;;
22164;SDS011;11248;52.512;13.520;2023-06-14T11:11:00;2.55;;;2.20;;
22164;SDS011;11248;52.512;13.520;2023-06-14T11:13:26;2.78;;;2.08;;
22164;SDS011;11248;52.512;13.520;2023-06-14T11:15:53;5.10;;;2.83;;
22164;SDS011;11248;52.512;13.520;2023-06-14T11:18:21;5.70;;;2.67;;
22164;SDS011;11248;52.512;13.520;2023-06-14T11:20:52;3.45;;;2.33;;
22164;SDS011;11248;52.512;13.520;2023-06-14T11:23:18;4.15;;;2.53;;
22164;SDS011;11248;52.512;13.520;2023-06-14T11:25:49;3.13;;;2.30;;
22164;SDS011;11248;52.512;13.520;2023-06-14T11:28:15;3.97;;;2.50;;
22164;SDS011;11248;52.512;13.520;2023-06-14T11:30:41;3.88;;;2.30;;
22164;SDS011;11248;52.512;13.520;2023-06-14T11:33:09;7.75;;;2.78;;
22164;SDS011;11248;52.512;13.520;2023-06-14T11:35:36;4.70;;;2.75;;
22164;SDS011;11248;52.512;13.520;2023-06-14T11:38:02;5.80;;;2.78;;
22164;SDS011;11248;52.512;13.520;2023-06-14T11:40:28;4.88;;;2.60;;
22164;SDS011;11248;52.512;13.520;2023-06-14T11:43:03;5.80;;;2.58;;
22164;SDS011;11248;52.512;13.520;2023-06-14T11:45:29;6.43;;;2.75;;
22164;SDS011;11248;52.512;13.520;2023-06-14T11:47:55;5.68;;;2.40;;
22164;SDS011;11248;52.512;13.520;2023-06-14T11:50:21;4.45;;;2.45;;
22164;SDS011;11248;52.512;13.520;2023-06-14T11:52:54;4.60;;;2.78;;
22164;SDS011;11248;52.512;13.520;2023-06-14T11:55:20;3.80;;;2.40;;
22164;SDS011;11248;52.512;13.520;2023-06-14T11:57:47;7.60;;;2.78;;
22164;SDS011;11248;52.512;13.520;2023-06-14T12:00:13;4.10;;;2.40;;
22164;SDS011;11248;52.512;13.520;2023-06-14T12:02:40;5.28;;;2.58;;
22164;SDS011;11248;52.512;13.520;2023-06-14T12:05:07;3.28;;;2.50;;
22164;SDS011;11248;52.512;13.520;2023-06-14T12:07:34;4.40;;;2.90;;
22164;SDS011;11248;52.512;13.520;2023-06-14T12:12:27;5.40;;;2.53;;
22164;SDS011;11248;52.512;13.520;2023-06-14T12:14:55;5.07;;;2.72;;
22164;SDS011;11248;52.512;13.520;2023-06-14T12:17:21;3.65;;;2.58;;
22164;SDS011;11248;52.512;13.520;2023-06-14T12:19:48;4.30;;;2.45;;
22164;SDS011;11248;52.512;13.520;2023-06-14T12:22:15;5.05;;;2.42;;
22164;SDS011;11248;52.512;13.520;2023-06-14T12:24:44;3.15;;;2.25;;
22164;SDS011;11248;52.512;13.520;2023-06-14T12:27:10;2.60;;;2.33;;
22164;SDS011;11248;52.512;13.520;2023-06-14T12:29:43;5.23;;;2.40;;
22164;SDS011;11248;52.512;13.520;2023-06-14T12:32:13;3.00;;;2.30;;
22164;SDS011;11248;52.512;13.520;2023-06-14T12:34:38;8.15;;;2.50;;
22164;SDS011;11248;52.512;13.520;2023-06-14T12:37:05;4.55;;;2.45;;
22164;SDS011;11248;52.512;13.520;2023-06-14T12:39:31;7.05;;;2.40;;
22164;SDS011;11248;52.512;13.520;2023-06-14T12:41:57;9.18;;;2.80;;
22164;SDS011;11248;52.512;13.520;2023-06-14T12:44:24;4.80;;;2.30;;
22164;SDS011;11248;52.512;13.520;2023-06-14T12:46:50;3.20;;;2.42;;
22164;SDS011;11248;52.512;13.520;2023-06-14T12:49:18;4.80;;;2.55;;
22164;SDS011;11248;52.512;13.520;2023-06-14T12:51:45;5.20;;;2.83;;
22164;SDS011;11248;52.512;13.520;2023-06-14T12:54:10;5.63;;;2.60;;
22164;SDS011;11248;52.512;13.520;2023-06-14T12:56:37;5.07;;;2.70;;
22164;SDS011;11248;52.512;13.520;2023-06-14T12:59:03;5.55;;;2.60;;
22164;SDS011;11248;52.512;13.520;2023-06-14T13:01:29;4.32;;;2.22;;
22164;SDS011;11248;52.512;13.520;2023-06-14T13:03:55;4.32;;;2.60;;
22164;SDS011;11248;52.512;13.520;2023-06-14T13:06:21;2.90;;;2.08;;
22164;SDS011;11248;52.512;13.520;2023-06-14T13:08:47;3.35;;;2.35;;
22164;SDS011;11248;52.512;13.520;2023-06-14T13:11:13;3.67;;;2.38;;
22164;SDS011;11248;52.512;13.520;2023-06-14T13:13:39;4.43;;;2.60;;
22164;SDS011;11248;52.512;13.520;2023-06-14T13:16:05;6.10;;;2.65;;
22164;SDS011;11248;52.512;13.520;2023-06-14T13:18:31;4.97;;;2.22;;
22164;SDS011;11248;52.512;13.520;2023-06-14T13:20:57;4.53;;;2.10;;
22164;SDS011;11248;52.512;13.520;2023-06-14T13:23:23;3.45;;;2.58;;
22164;SDS011;11248;52.512;13.520;2023-06-14T13:25:49;6.20;;;2.47;;
22164;SDS011;11248;52.512;13.520;2023-06-14T13:28:16;3.60;;;2.33;;
22164;SDS011;11248;52.512;13.520;2023-06-14T13:30:42;3.47;;;2.40;;
22164;SDS011;11248;52.512;13.520;2023-06-14T13:33:08;4.68;;;2.45;;
22164;SDS011;11248;52.512;13.520;2023-06-14T13:35:34;3.10;;;2.05;;
22164;SDS011;11248;52.512;13.520;2023-06-14T13:38:00;4.63;;;2.38;;
22164;SDS011;11248;52.512;13.520;2023-06-14T13:40:26;4.97;;;2.25;;
22164;SDS011;11248;52.512;13.520;2023-06-14T13:42:52;2.22;;;2.03;;
22164;SDS011;11248;52.512;13.520;2023-06-14T13:45:17;5.50;;;2.88;;
22164;SDS011;11248;52.512;13.520;2023-06-14T13:47:43;4.18;;;2.38;;
22164;SDS011;11248;52.512;13.520;2023-06-14T13:50:10;5.05;;;2.30;;
22164;SDS011;11248;52.512;13.520;2023-06-14T13:52:35;5.07;;;2.20;;
22164;SDS011;11248;52.512;13.520;2023-06-14T13:55:02;2.72;;;2.30;;
22164;SDS011;11248;52.512;13.520;2023-06-14T13:57:28;6.18;;;2.50;;
22164;SDS011;11248;52.512;13.520;2023-06-14T13:59:54;2.53;;;2.20;;
22164;SDS011;11248;52.512;13.520;2023-06-14T14:02:25;9.73;;;2.67;;
22164;SDS011;11248;52.512;13.520;2023-06-14T14:04:51;4.70;;;2.55;;
22164;SDS011;11248;52.512;13.520;2023-06-14T14:07:18;3.03;;;2.13;;
22164;SDS011;11248;52.512;13.520;2023-06-14T14:09:45;5.25;;;2.70;;
22164;SDS011;11248;52.512;13.520;2023-06-14T14:12:12;7.47;;;2.60;;
22164;SDS011;11248;52.512;13.520;2023-06-14T14:14:39;4.38;;;2.42;;
22164;SDS011;11248;52.512;13.520;2023-06-14T14:17:05;4.10;;;2.92;;
22164;SDS011;11248;52.512;13.520;2023-06-14T14:19:31;4.18;;;2.25;;
22164;SDS011;11248;52.512;13.520;2023-06-14T14:21:57;4.18;;;2.25;;
22164;SDS011;11248;52.512;13.520;2023-06-14T14:24:23;5.03;;;2.70;;
22164;SDS011;11248;52.512;13.520;2023-06-14T14:26:49;3.83;;;2.75;;
22164;SDS011;11248;52.512;13.520;2023-06-14T14:29:18;4.47;;;2.40;;
22164;SDS011;11248;52.512;13.520;2023-06-14T14:31:44;2.88;;;2.20;;
22164;SDS011;11248;52.512;13.520;2023-06-14T14:34:10;4.43;;;2.47;;
22164;SDS011;11248;52.512;13.520;2023-06-14T14:36:36;4.43;;;2.63;;
22164;SDS011;11248;52.512;13.520;2023-06-14T14:39:03;7.50;;;2.40;;
22164;SDS011;11248;52.512;13.520;2023-06-14T14:41:29;5.00;;;2.83;;
22164;SDS011;11248;52.512;13.520;2023-06-14T14:43:55;5.18;;;2.55;;